createdAt,value
2023-02-07T00:01:14.879Z,250.93
2023-02-07T00:04:39.255Z,240.39
2023-02-07T00:08:00.107Z,245.23
2023-02-07T00:11:37.114Z,270.54
2023-02-07T00:14:57.768Z,260.48
2023-02-07T00:18:18.480Z,273.38
2023-02-07T00:21:39.452Z,253.60
2023-02-07T00:25:09.603Z,232.08
2023-02-07T00:28:33.130Z,243.51
2023-02-07T00:31:56.974Z,217.07
2023-02-07T00:35:19.197Z,164.20
2023-02-07T00:38:40.165Z,226.48
2023-02-07T00:42:08.081Z,236.58
2023-02-07T00:45:40.586Z,203.13
2023-02-07T00:49:07.494Z,203.01
2023-02-07T00:52:28.181Z,216.64
2023-02-07T00:55:48.880Z,217.01
2023-02-07T00:59:10.440Z,216.27
2023-02-07T01:02:33.774Z,215.81
2023-02-07T01:05:54.690Z,211.65
2023-02-07T01:09:29.177Z,214.14
2023-02-07T01:12:55.685Z,190.98
2023-02-07T01:16:28.397Z,180.38
2023-02-07T01:19:52.078Z,172.72
2023-02-07T01:23:15.622Z,175.25
2023-02-07T01:26:45.646Z,205.58
2023-02-07T01:30:11.881Z,208.63
2023-02-07T01:33:32.655Z,217.15
2023-02-07T01:36:56.139Z,206.91
2023-02-07T01:40:17.283Z,190.43
2023-02-07T01:43:39.240Z,191.19
2023-02-07T01:47:00.758Z,179.55
2023-02-07T01:50:32.104Z,182.67
2023-02-07T01:54:15.481Z,182.29
2023-02-07T01:57:36.590Z,178.06
2023-02-07T02:00:58.440Z,180.51
2023-02-07T02:04:19.088Z,180.77
2023-02-07T02:07:42.964Z,187.24
2023-02-07T02:11:47.891Z,197.69
2023-02-07T02:15:38.125Z,208.58
2023-02-07T02:19:44.476Z,214.00
2023-02-07T02:23:39.608Z,205.80
2023-02-07T02:27:18.922Z,203.50
2023-02-07T02:31:16.712Z,202.27
2023-02-07T02:34:58.217Z,203.94
2023-02-07T02:38:33.958Z,209.04
2023-02-07T02:42:10.485Z,211.55
2023-02-07T02:45:42.270Z,208.55
2023-02-07T02:49:20.945Z,193.58
2023-02-07T02:52:50.659Z,157.03
2023-02-07T02:56:32.500Z,133.18
2023-02-07T03:00:06.781Z,128.33
2023-02-07T03:04:24.436Z,130.41
2023-02-07T03:07:58.151Z,158.86
2023-02-07T03:11:17.232Z,150.86
2023-02-07T03:14:37.278Z,154.28
2023-02-07T03:17:57.512Z,150.04
2023-02-07T03:21:14.489Z,153.87
2023-02-07T03:24:32.578Z,152.91
2023-02-07T03:27:43.503Z,136.00
2023-02-07T03:30:57.781Z,123.69
2023-02-07T03:34:14.520Z,107.40
2023-02-07T03:37:30.908Z,115.69
2023-02-07T03:40:47.845Z,132.59
2023-02-07T03:43:57.305Z,145.21
2023-02-07T03:47:03.449Z,154.94
2023-02-07T03:50:11.004Z,153.22
2023-02-07T03:53:17.164Z,156.53
2023-02-07T03:56:26.554Z,165.07
2023-02-07T03:59:34.312Z,179.48
2023-02-07T04:02:41.042Z,177.48
2023-02-07T04:05:49.800Z,171.73
2023-02-07T04:08:56.803Z,170.09
2023-02-07T04:12:07.875Z,150.72
2023-02-07T04:15:16.313Z,138.58
2023-02-07T04:18:22.420Z,145.56
2023-02-07T04:21:32.405Z,140.21
2023-02-07T04:24:38.285Z,141.52
2023-02-07T04:27:47.837Z,137.16
2023-02-07T04:30:54.594Z,144.16
2023-02-07T04:34:04.927Z,140.64
2023-02-07T04:37:11.867Z,150.63
2023-02-07T04:40:19.263Z,158.53
2023-02-07T04:43:28.189Z,169.11
2023-02-07T04:46:41.548Z,161.05
2023-02-07T04:49:47.567Z,130.70
2023-02-07T04:52:57.797Z,116.29
2023-02-07T04:56:06.326Z,120.42
2023-02-07T04:59:15.680Z,122.36
2023-02-07T05:02:21.521Z,124.62
2023-02-07T05:05:28.746Z,125.16
2023-02-07T05:08:34.762Z,121.91
2023-02-07T05:11:41.452Z,121.62
2023-02-07T05:14:50.009Z,121.40
2023-02-07T05:17:57.280Z,119.64
2023-02-07T05:21:07.836Z,119.42
2023-02-07T05:24:14.800Z,120.07
2023-02-07T05:27:20.699Z,115.67
2023-02-07T05:30:30.506Z,126.15
2023-02-07T05:33:36.191Z,202.57
2023-02-07T05:36:43.528Z,197.62
2023-02-07T05:39:49.556Z,197.14
2023-02-07T05:42:57.338Z,212.03
2023-02-07T05:46:06.167Z,196.37
2023-02-07T05:49:16.573Z,196.05
2023-02-07T05:52:22.558Z,189.69
2023-02-07T05:55:29.557Z,207.94
2023-02-07T05:58:35.541Z,206.59
2023-02-07T06:01:43.803Z,197.14
2023-02-07T06:05:04.802Z,177.20
2023-02-07T06:08:25.616Z,178.35
2023-02-07T06:11:33.184Z,186.30
2023-02-07T06:14:39.569Z,210.96
2023-02-07T06:17:49.004Z,194.31
2023-02-07T06:20:55.419Z,185.67
2023-02-07T06:24:02.243Z,199.30
2023-02-07T06:27:12.693Z,214.49
2023-02-07T06:30:19.605Z,229.28
2023-02-07T06:33:28.285Z,234.00
2023-02-07T06:36:35.246Z,217.62
2023-02-07T06:39:41.373Z,205.86
2023-02-07T06:42:53.212Z,214.79
2023-02-07T06:45:59.890Z,231.31
2023-02-07T06:49:11.512Z,237.40
2023-02-07T06:52:17.799Z,238.51
2023-02-07T06:55:24.790Z,243.56
2023-02-07T06:58:37.080Z,238.22
2023-02-07T07:01:44.608Z,240.01
2023-02-07T07:04:53.363Z,219.68
2023-02-07T07:08:01.994Z,206.18
2023-02-07T07:11:08.415Z,208.50
2023-02-07T07:14:16.179Z,212.32
2023-02-07T07:17:22.191Z,226.17
2023-02-07T07:20:38.764Z,244.61
2023-02-07T07:23:44.908Z,231.71
2023-02-07T07:26:54.481Z,234.73
2023-02-07T07:30:00.562Z,228.21
2023-02-07T07:33:10.742Z,202.00
2023-02-07T07:36:19.404Z,214.41
2023-02-07T07:39:26.640Z,210.14
2023-02-07T07:42:32.659Z,211.23
2023-02-07T07:45:59.796Z,209.44
2023-02-07T07:49:05.820Z,206.85
2023-02-07T07:52:15.246Z,191.56
2023-02-07T07:55:21.595Z,172.29
2023-02-07T07:58:30.809Z,146.10
2023-02-07T08:01:36.933Z,151.38
2023-02-07T08:04:43.747Z,157.37
2023-02-07T08:07:52.407Z,163.60
2023-02-07T08:11:05.478Z,199.71
2023-02-07T08:14:11.422Z,182.80
2023-02-07T08:17:23.270Z,227.31
2023-02-07T08:20:36.158Z,241.26
2023-02-07T08:23:45.954Z,256.02
2023-02-07T08:26:51.980Z,275.79
2023-02-07T08:29:58.911Z,269.63
2023-02-07T08:33:05.031Z,253.26
2023-02-07T08:36:12.281Z,242.89
2023-02-07T08:39:27.085Z,235.86
2023-02-07T08:42:36.613Z,235.62
2023-02-07T08:45:42.794Z,240.71
2023-02-07T08:48:50.094Z,242.55
2023-02-07T08:51:56.807Z,241.15
2023-02-07T08:55:08.294Z,242.34
2023-02-07T08:58:14.400Z,253.54
2023-02-07T09:01:23.669Z,261.01
2023-02-07T09:04:29.926Z,262.36
2023-02-07T09:07:36.666Z,242.92
2023-02-07T09:10:47.490Z,205.50
2023-02-07T09:13:54.414Z,197.30
2023-02-07T09:17:03.868Z,192.96
2023-02-07T09:20:11.860Z,189.07
2023-02-07T09:23:20.907Z,195.96
2023-02-07T09:26:32.449Z,202.58
2023-02-07T09:29:38.716Z,186.28
2023-02-07T09:32:46.107Z,148.78
2023-02-07T09:35:54.859Z,143.95
2023-02-07T09:39:03.784Z,151.11
2023-02-07T09:42:34.955Z,137.87
2023-02-07T09:45:51.678Z,144.52
2023-02-07T09:49:13.397Z,153.83
2023-02-07T09:52:32.193Z,159.90
2023-02-07T09:55:52.912Z,174.64
2023-02-07T09:59:25.174Z,177.09
2023-02-07T10:02:47.720Z,164.06
2023-02-07T10:06:17.459Z,158.47
2023-02-07T10:09:43.442Z,161.03
2023-02-07T10:13:41.708Z,161.55
2023-02-07T10:17:31.609Z,151.65
2023-02-07T10:20:49.254Z,150.08
2023-02-07T10:24:27.729Z,160.50
2023-02-07T10:27:48.892Z,140.62
2023-02-07T10:31:05.356Z,138.36
2023-02-07T10:34:24.622Z,120.81
2023-02-07T10:37:40.476Z,135.22
2023-02-07T10:41:03.484Z,141.70
2023-02-07T10:44:16.717Z,149.48
2023-02-07T10:47:26.402Z,138.33
2023-02-07T10:50:35.354Z,143.63
2023-02-07T10:54:04.691Z,142.78
2023-02-07T10:57:23.734Z,166.32
2023-02-07T11:00:38.517Z,140.13
2023-02-07T11:03:44.818Z,130.63
2023-02-07T11:07:04.596Z,129.80
2023-02-07T11:10:21.590Z,146.40
2023-02-07T11:13:32.799Z,135.16
2023-02-07T11:16:39.331Z,137.19
2023-02-07T11:19:49.177Z,142.17
2023-02-07T11:23:00.179Z,145.80
2023-02-07T11:26:08.740Z,156.90
2023-02-07T11:29:22.267Z,154.27
2023-02-07T11:32:31.740Z,163.20
2023-02-07T11:35:40.099Z,162.08
2023-02-07T11:38:53.974Z,160.55
2023-02-07T11:42:04.771Z,163.68
2023-02-07T11:45:18.572Z,164.06
2023-02-07T11:48:31.574Z,183.25
2023-02-07T11:51:40.099Z,262.91
2023-02-07T11:54:57.831Z,187.86
2023-02-07T11:58:17.996Z,191.45
2023-02-07T12:01:32.809Z,172.39
2023-02-07T12:04:42.471Z,185.05
2023-02-07T12:07:55.385Z,178.75
2023-02-07T12:11:15.554Z,184.88
2023-02-07T12:14:35.975Z,182.49
2023-02-07T12:17:59.755Z,187.63
2023-02-07T12:21:21.145Z,205.36
2023-02-07T12:24:37.118Z,190.22
2023-02-07T12:27:53.397Z,185.22
2023-02-07T12:31:17.963Z,186.37
2023-02-07T12:34:36.909Z,170.07
2023-02-07T12:37:55.673Z,180.53
2023-02-07T12:41:15.682Z,188.96
2023-02-07T12:44:37.690Z,169.85
2023-02-07T12:48:07.029Z,156.90
2023-02-07T12:51:33.605Z,168.38
2023-02-07T12:54:58.500Z,171.61
2023-02-07T12:58:31.887Z,153.16
2023-02-07T13:01:52.820Z,144.63
2023-02-07T13:05:46.905Z,143.62
2023-02-07T13:09:10.914Z,141.30
2023-02-07T13:12:28.134Z,128.00
2023-02-07T13:15:50.173Z,120.93
2023-02-07T13:19:14.714Z,115.13
2023-02-07T13:22:40.093Z,120.98
2023-02-07T13:25:53.436Z,120.69
2023-02-07T13:29:04.369Z,105.42
2023-02-07T13:32:21.829Z,106.14
2023-02-07T13:35:38.349Z,92.71
2023-02-07T13:39:11.509Z,91.17
2023-02-07T13:42:36.404Z,83.71
2023-02-07T13:45:59.266Z,89.18
2023-02-07T13:49:22.523Z,89.13
2023-02-07T13:52:46.100Z,82.37
2023-02-07T13:55:53.810Z,84.33
2023-02-07T13:59:12.976Z,89.38
2023-02-07T14:02:24.775Z,94.14
2023-02-07T14:05:37.572Z,95.69
2023-02-07T14:08:48.221Z,88.27
2023-02-07T14:12:04.793Z,96.29
2023-02-07T14:16:02.050Z,89.49
2023-02-07T14:19:14.243Z,124.41
2023-02-07T14:22:24.875Z,99.77
2023-02-07T14:25:46.949Z,83.32
2023-02-07T14:28:52.961Z,86.17
2023-02-07T14:32:04.119Z,85.21
2023-02-07T14:35:40.831Z,77.98
2023-02-07T14:39:07.132Z,74.96
2023-02-07T14:42:24.941Z,69.20
2023-02-07T14:45:36.340Z,73.69
2023-02-07T14:48:54.291Z,77.93
2023-02-07T14:52:10.682Z,84.76
2023-02-07T14:55:27.575Z,78.72
2023-02-07T14:58:45.663Z,78.72
2023-02-07T15:01:51.681Z,75.62
2023-02-07T15:04:58.588Z,69.90
2023-02-07T15:08:22.091Z,61.32
2023-02-07T15:11:30.649Z,63.10
2023-02-07T15:14:39.713Z,64.54
2023-02-07T15:17:47.829Z,68.32
2023-02-07T15:20:59.490Z,65.71
2023-02-07T15:24:19.822Z,65.53
2023-02-07T15:27:28.831Z,66.87
2023-02-07T15:30:37.381Z,76.33
2023-02-07T15:33:53.777Z,78.50
2023-02-07T15:37:03.989Z,76.52
2023-02-07T15:40:20.486Z,75.46
2023-02-07T15:43:35.498Z,74.69
2023-02-07T15:46:54.489Z,71.73
2023-02-07T15:50:04.153Z,68.48
2023-02-07T15:53:11.960Z,65.72
2023-02-07T15:56:22.901Z,66.07
2023-02-07T15:59:34.670Z,67.98
2023-02-07T16:02:51.603Z,70.63
2023-02-07T16:06:10.285Z,74.02
2023-02-07T16:09:40.555Z,74.22
2023-02-07T16:12:53.356Z,73.75
2023-02-07T16:16:03.515Z,73.04
2023-02-07T16:19:20.457Z,82.49
2023-02-07T16:22:34.725Z,102.49
2023-02-07T16:25:41.228Z,110.86
2023-02-07T16:28:51.724Z,114.36
2023-02-07T16:31:59.315Z,119.26
2023-02-07T16:35:06.161Z,124.08
2023-02-07T16:38:12.155Z,107.50
2023-02-07T16:41:32.613Z,105.29
2023-02-07T16:44:41.258Z,106.25
2023-02-07T16:47:49.679Z,110.57
2023-02-07T16:50:55.708Z,111.74
2023-02-07T16:54:02.560Z,112.32
2023-02-07T16:57:08.927Z,118.07
2023-02-07T17:00:24.122Z,119.19
2023-02-07T17:03:30.192Z,116.60
2023-02-07T17:06:37.187Z,113.28
2023-02-07T17:09:43.312Z,106.10
2023-02-07T17:12:50.738Z,90.81
2023-02-07T17:15:59.776Z,96.42
2023-02-07T17:19:14.393Z,92.77
2023-02-07T17:22:20.397Z,120.34
2023-02-07T17:25:30.931Z,106.07
2023-02-07T17:28:37.578Z,100.92
2023-02-07T17:31:49.482Z,96.41
2023-02-07T17:34:55.741Z,91.95
2023-02-07T17:38:03.086Z,85.27
2023-02-07T17:41:10.026Z,81.82
2023-02-07T17:44:21.595Z,79.31
2023-02-07T17:47:30.126Z,79.77
2023-02-07T17:50:41.569Z,79.17
2023-02-07T17:53:47.657Z,78.92
2023-02-07T17:56:55.687Z,79.73
2023-02-07T18:00:01.849Z,80.98
2023-02-07T18:03:21.994Z,81.36
2023-02-07T18:06:31.398Z,83.44
2023-02-07T18:09:38.290Z,84.48
2023-02-07T18:12:44.406Z,85.93
2023-02-07T18:15:51.638Z,88.11
2023-02-07T18:19:01.017Z,88.50
2023-02-07T18:22:08.785Z,94.58
2023-02-07T18:25:15.555Z,105.07
2023-02-07T18:28:22.582Z,105.71
2023-02-07T18:31:28.876Z,99.73
2023-02-07T18:34:38.703Z,103.25
2023-02-07T18:37:45.177Z,112.50
2023-02-07T18:40:52.029Z,131.17
2023-02-07T18:43:58.014Z,100.48
2023-02-07T18:47:04.886Z,84.85
2023-02-07T18:50:15.923Z,83.78
2023-02-07T18:53:23.202Z,85.24
2023-02-07T18:56:30.148Z,85.63
2023-02-07T18:59:37.739Z,85.78
2023-02-07T19:02:43.902Z,86.99
2023-02-07T19:05:53.263Z,138.58
2023-02-07T19:09:00.411Z,105.76
2023-02-07T19:12:09.869Z,116.66
2023-02-07T19:15:16.911Z,129.86
2023-02-07T19:18:24.116Z,95.86
2023-02-07T19:21:33.272Z,91.69
2023-02-07T19:24:42.318Z,91.13
2023-02-07T19:27:48.465Z,89.97
2023-02-07T19:30:55.329Z,89.19
2023-02-07T19:34:03.187Z,89.57
2023-02-07T19:37:12.701Z,88.22
2023-02-07T19:40:18.938Z,90.69
2023-02-07T19:43:26.321Z,93.20
2023-02-07T19:46:33.005Z,95.44
2023-02-07T19:49:40.400Z,96.89
2023-02-07T19:52:49.081Z,96.82
2023-02-07T19:55:56.116Z,100.12
2023-02-07T19:59:04.345Z,102.32
2023-02-07T20:02:11.308Z,105.03
2023-02-07T20:05:17.424Z,102.18
2023-02-07T20:08:27.035Z,98.65
2023-02-07T20:11:34.070Z,96.60
2023-02-07T20:14:41.243Z,97.18
2023-02-07T20:17:51.181Z,100.04
2023-02-07T20:21:06.224Z,99.58
2023-02-07T20:24:21.858Z,97.22
2023-02-07T20:27:30.441Z,91.95
2023-02-07T20:30:38.326Z,92.59
2023-02-07T20:33:50.605Z,84.07
2023-02-07T20:36:59.000Z,83.01
2023-02-07T20:40:09.579Z,84.99
2023-02-07T20:43:15.709Z,84.21
2023-02-07T20:46:22.703Z,130.17
2023-02-07T20:49:37.215Z,90.29
2023-02-07T20:52:43.977Z,84.16
2023-02-07T20:55:52.617Z,85.22
2023-02-07T20:59:00.893Z,80.94
2023-02-07T21:02:09.915Z,79.96
2023-02-07T21:05:17.563Z,81.18
2023-02-07T21:08:25.248Z,82.16
2023-02-07T21:11:42.505Z,84.59
2023-02-07T21:14:52.607Z,88.89
2023-02-07T21:17:59.426Z,88.06
2023-02-07T21:21:14.178Z,84.39
2023-02-07T21:24:22.070Z,84.95
2023-02-07T21:27:30.723Z,90.60
2023-02-07T21:30:41.849Z,97.90
2023-02-07T21:33:49.868Z,94.23
2023-02-07T21:37:01.933Z,87.93
2023-02-07T21:40:09.917Z,84.70
2023-02-07T21:43:22.012Z,84.19
2023-02-07T21:46:33.086Z,84.25
2023-02-07T21:49:39.984Z,83.56
2023-02-07T21:52:46.006Z,82.06
2023-02-07T21:55:52.890Z,84.19
2023-02-07T21:59:05.229Z,87.03
2023-02-07T22:02:14.882Z,86.83
2023-02-07T22:05:21.255Z,85.09
2023-02-07T22:08:28.075Z,84.53
2023-02-07T22:11:37.820Z,84.64
2023-02-07T22:14:47.316Z,90.97
2023-02-07T22:17:53.240Z,92.09
2023-02-07T22:21:07.463Z,93.55
2023-02-07T22:24:18.490Z,88.20
2023-02-07T22:27:25.302Z,84.95
2023-02-07T22:30:33.899Z,78.46
2023-02-07T22:33:40.856Z,73.48
2023-02-07T22:36:48.923Z,72.36
2023-02-07T22:39:55.626Z,73.29
2023-02-07T22:43:01.507Z,77.31
2023-02-07T22:46:16.060Z,78.45
2023-02-07T22:49:22.213Z,76.30
2023-02-07T22:52:29.176Z,78.72
2023-02-07T22:55:36.621Z,77.67
2023-02-07T22:58:44.655Z,78.11
2023-02-07T23:01:53.405Z,78.90
2023-02-07T23:05:00.244Z,83.71
2023-02-07T23:08:06.319Z,83.45
2023-02-07T23:11:21.912Z,91.10
2023-02-07T23:14:27.856Z,84.96
2023-02-07T23:17:37.646Z,78.51
2023-02-07T23:20:47.576Z,79.42
2023-02-07T23:23:54.753Z,78.71
2023-02-07T23:27:00.622Z,80.33
2023-02-07T23:30:08.408Z,81.99
2023-02-07T23:33:16.932Z,84.49
2023-02-07T23:36:24.817Z,84.10
2023-02-07T23:39:30.829Z,80.91
2023-02-07T23:42:38.053Z,82.77
2023-02-07T23:45:44.143Z,86.49
2023-02-07T23:48:53.580Z,84.93
2023-02-07T23:51:59.483Z,85.26
2023-02-07T23:55:23.124Z,93.11
2023-02-07T23:58:31.233Z,88.83
